sensor_id;sensor_type;location;lat;lon;timestamp;P1;durP1;ratioP1;P2;durP2;ratioP2
77573;SDS011;66710;48.868;9.080;2023-04-30T00:00:41;7.57;;;4.57;;
77573;SDS011;66710;48.868;9.080;2023-04-30T00:03:06;6.72;;;4.55;;
77573;SDS011;66710;48.868;9.080;2023-04-30T00:05:31;8.18;;;4.78;;
77573;SDS011;66710;48.868;9.080;2023-04-30T00:07:57;7.53;;;4.97;;
77573;SDS011;66710;48.868;9.080;2023-04-30T00:10:22;8.30;;;4.55;;
77573;SDS011;66710;48.868;9.080;2023-04-30T00:12:47;6.68;;;4.38;;
77573;SDS011;66710;48.868;9.080;2023-04-30T00:15:13;7.97;;;4.95;;
77573;SDS011;66710;48.868;9.080;2023-04-30T00:17:38;7.07;;;4.85;;
77573;SDS011;66710;48.868;9.080;2023-04-30T00:20:04;7.75;;;4.72;;
77573;SDS011;66710;48.868;9.080;2023-04-30T00:22:30;8.10;;;5.35;;
77573;SDS011;66710;48.868;9.080;2023-04-30T00:24:57;7.10;;;4.75;;
77573;SDS011;66710;48.868;9.080;2023-04-30T00:27:22;8.52;;;5.30;;
77573;SDS011;66710;48.868;9.080;2023-04-30T00:29:48;8.38;;;5.30;;
77573;SDS011;66710;48.868;9.080;2023-04-30T00:32:13;8.10;;;5.50;;
77573;SDS011;66710;48.868;9.080;2023-04-30T00:34:39;7.70;;;5.18;;
77573;SDS011;66710;48.868;9.080;2023-04-30T00:37:04;8.70;;;5.28;;
77573;SDS011;66710;48.868;9.080;2023-04-30T00:39:30;8.75;;;5.55;;
77573;SDS011;66710;48.868;9.080;2023-04-30T00:41:55;7.30;;;4.72;;
77573;SDS011;66710;48.868;9.080;2023-04-30T00:44:20;9.15;;;5.22;;
77573;SDS011;66710;48.868;9.080;2023-04-30T00:46:45;9.25;;;5.80;;
77573;SDS011;66710;48.868;9.080;2023-04-30T00:49:11;9.00;;;5.72;;
77573;SDS011;66710;48.868;9.080;2023-04-30T00:51:36;9.20;;;5.47;;
77573;SDS011;66710;48.868;9.080;2023-04-30T00:54:06;8.68;;;5.50;;
77573;SDS011;66710;48.868;9.080;2023-04-30T00:56:32;9.93;;;5.78;;
77573;SDS011;66710;48.868;9.080;2023-04-30T00:58:57;9.88;;;6.18;;
77573;SDS011;66710;48.868;9.080;2023-04-30T01:01:24;9.98;;;6.20;;
77573;SDS011;66710;48.868;9.080;2023-04-30T01:03:49;9.90;;;6.13;;
77573;SDS011;66710;48.868;9.080;2023-04-30T01:06:16;10.32;;;6.07;;
77573;SDS011;66710;48.868;9.080;2023-04-30T01:08:41;9.30;;;5.80;;
77573;SDS011;66710;48.868;9.080;2023-04-30T01:14:11;10.27;;;6.43;;
77573;SDS011;66710;48.868;9.080;2023-04-30T01:16:45;11.65;;;6.22;;
77573;SDS011;66710;48.868;9.080;2023-04-30T01:19:19;10.07;;;6.28;;
77573;SDS011;66710;48.868;9.080;2023-04-30T01:22:01;11.30;;;6.20;;
77573;SDS011;66710;48.868;9.080;2023-04-30T01:27:30;10.00;;;6.65;;
77573;SDS011;66710;48.868;9.080;2023-04-30T01:30:04;9.73;;;6.40;;
77573;SDS011;66710;48.868;9.080;2023-04-30T01:32:31;11.02;;;6.65;;
77573;SDS011;66710;48.868;9.080;2023-04-30T01:34:56;11.55;;;6.82;;
77573;SDS011;66710;48.868;9.080;2023-04-30T01:40:23;12.80;;;7.10;;
77573;SDS011;66710;48.868;9.080;2023-04-30T01:43:15;11.13;;;7.18;;
77573;SDS011;66710;48.868;9.080;2023-04-30T01:51:07;10.93;;;6.65;;
77573;SDS011;66710;48.868;9.080;2023-04-30T01:53:43;12.85;;;6.72;;
77573;SDS011;66710;48.868;9.080;2023-04-30T01:56:11;10.52;;;6.47;;
77573;SDS011;66710;48.868;9.080;2023-04-30T01:58:49;13.00;;;6.95;;
77573;SDS011;66710;48.868;9.080;2023-04-30T02:01:30;10.80;;;6.75;;
77573;SDS011;66710;48.868;9.080;2023-04-30T02:03:56;11.55;;;6.97;;
77573;SDS011;66710;48.868;9.080;2023-04-30T02:06:22;11.88;;;6.93;;
77573;SDS011;66710;48.868;9.080;2023-04-30T02:08:52;10.95;;;6.85;;
77573;SDS011;66710;48.868;9.080;2023-04-30T02:11:18;11.60;;;7.43;;
77573;SDS011;66710;48.868;9.080;2023-04-30T02:13:43;13.15;;;7.30;;
77573;SDS011;66710;48.868;9.080;2023-04-30T02:16:09;12.07;;;7.13;;
77573;SDS011;66710;48.868;9.080;2023-04-30T02:18:34;10.95;;;6.70;;
77573;SDS011;66710;48.868;9.080;2023-04-30T02:21:00;11.77;;;7.10;;
77573;SDS011;66710;48.868;9.080;2023-04-30T02:23:25;11.35;;;7.78;;
77573;SDS011;66710;48.868;9.080;2023-04-30T02:25:50;11.48;;;7.60;;
77573;SDS011;66710;48.868;9.080;2023-04-30T02:28:15;12.45;;;7.70;;
77573;SDS011;66710;48.868;9.080;2023-04-30T02:30:41;12.05;;;7.55;;
77573;SDS011;66710;48.868;9.080;2023-04-30T02:33:06;12.77;;;7.70;;
77573;SDS011;66710;48.868;9.080;2023-04-30T02:35:31;11.80;;;7.63;;
77573;SDS011;66710;48.868;9.080;2023-04-30T02:37:56;12.35;;;7.72;;
77573;SDS011;66710;48.868;9.080;2023-04-30T02:40:22;13.05;;;7.90;;
77573;SDS011;66710;48.868;9.080;2023-04-30T02:42:47;12.55;;;8.20;;
77573;SDS011;66710;48.868;9.080;2023-04-30T02:45:12;11.40;;;7.50;;
77573;SDS011;66710;48.868;9.080;2023-04-30T02:47:38;11.63;;;7.57;;
77573;SDS011;66710;48.868;9.080;2023-04-30T02:50:03;12.02;;;7.75;;
77573;SDS011;66710;48.868;9.080;2023-04-30T02:52:29;11.90;;;7.75;;
77573;SDS011;66710;48.868;9.080;2023-04-30T02:54:55;13.38;;;8.38;;
77573;SDS011;66710;48.868;9.080;2023-04-30T02:57:20;11.70;;;7.80;;
77573;SDS011;66710;48.868;9.080;2023-04-30T02:59:45;12.63;;;7.97;;
77573;SDS011;66710;48.868;9.080;2023-04-30T03:02:10;12.80;;;7.75;;
77573;SDS011;66710;48.868;9.080;2023-04-30T03:04:37;11.52;;;7.30;;
77573;SDS011;66710;48.868;9.080;2023-04-30T03:07:02;12.85;;;8.40;;
77573;SDS011;66710;48.868;9.080;2023-04-30T03:09:29;15.68;;;8.18;;
77573;SDS011;66710;48.868;9.080;2023-04-30T03:11:56;14.55;;;8.10;;
77573;SDS011;66710;48.868;9.080;2023-04-30T03:14:21;11.68;;;7.90;;
77573;SDS011;66710;48.868;9.080;2023-04-30T03:16:46;11.68;;;7.97;;
77573;SDS011;66710;48.868;9.080;2023-04-30T03:19:11;14.60;;;8.15;;
77573;SDS011;66710;48.868;9.080;2023-04-30T03:21:37;14.07;;;7.82;;
77573;SDS011;66710;48.868;9.080;2023-04-30T03:24:02;12.75;;;8.00;;
77573;SDS011;66710;48.868;9.080;2023-04-30T03:26:27;12.20;;;7.90;;
77573;SDS011;66710;48.868;9.080;2023-04-30T03:28:53;11.95;;;7.80;;
77573;SDS011;66710;48.868;9.080;2023-04-30T03:31:19;13.10;;;8.05;;
77573;SDS011;66710;48.868;9.080;2023-04-30T03:33:45;12.00;;;8.20;;
77573;SDS011;66710;48.868;9.080;2023-04-30T03:36:10;13.95;;;8.18;;
77573;SDS011;66710;48.868;9.080;2023-04-30T03:38:36;13.27;;;8.00;;
77573;SDS011;66710;48.868;9.080;2023-04-30T03:41:01;12.90;;;8.07;;
77573;SDS011;66710;48.868;9.080;2023-04-30T03:43:27;14.38;;;8.57;;
77573;SDS011;66710;48.868;9.080;2023-04-30T03:45:53;13.15;;;7.90;;
77573;SDS011;66710;48.868;9.080;2023-04-30T03:48:18;15.07;;;8.50;;
77573;SDS011;66710;48.868;9.080;2023-04-30T03:50:43;12.18;;;8.05;;
77573;SDS011;66710;48.868;9.080;2023-04-30T03:53:09;14.40;;;8.43;;
77573;SDS011;66710;48.868;9.080;2023-04-30T03:55:34;14.20;;;8.57;;
77573;SDS011;66710;48.868;9.080;2023-04-30T03:57:59;13.85;;;8.40;;
77573;SDS011;66710;48.868;9.080;2023-04-30T04:00:25;14.45;;;8.40;;
77573;SDS011;66710;48.868;9.080;2023-04-30T04:02:50;13.27;;;8.30;;
77573;SDS011;66710;48.868;9.080;2023-04-30T04:05:16;11.82;;;8.15;;
77573;SDS011;66710;48.868;9.080;2023-04-30T04:07:41;12.70;;;7.78;;
77573;SDS011;66710;48.868;9.080;2023-04-30T04:10:06;13.98;;;8.27;;
77573;SDS011;66710;48.868;9.080;2023-04-30T04:12:32;12.65;;;8.55;;
77573;SDS011;66710;48.868;9.080;2023-04-30T04:14:58;13.98;;;8.40;;
77573;SDS011;66710;48.868;9.080;2023-04-30T04:17:23;13.50;;;8.18;;
77573;SDS011;66710;48.868;9.080;2023-04-30T04:19:48;13.95;;;8.88;;
77573;SDS011;66710;48.868;9.080;2023-04-30T04:22:13;12.63;;;7.78;;
77573;SDS011;66710;48.868;9.080;2023-04-30T04:24:38;12.02;;;8.45;;
77573;SDS011;66710;48.868;9.080;2023-04-30T04:27:04;13.55;;;8.57;;
77573;SDS011;66710;48.868;9.080;2023-04-30T04:29:29;13.70;;;8.18;;
77573;SDS011;66710;48.868;9.080;2023-04-30T04:31:56;12.57;;;8.60;;
77573;SDS011;66710;48.868;9.080;2023-04-30T04:34:21;15.40;;;8.52;;
77573;SDS011;66710;48.868;9.080;2023-04-30T04:36:46;11.95;;;8.23;;
77573;SDS011;66710;48.868;9.080;2023-04-30T04:39:12;13.38;;;8.30;;
77573;SDS011;66710;48.868;9.080;2023-04-30T04:41:37;14.27;;;8.77;;
77573;SDS011;66710;48.868;9.080;2023-04-30T04:44:03;14.30;;;8.25;;
77573;SDS011;66710;48.868;9.080;2023-04-30T04:46:31;13.27;;;8.70;;
77573;SDS011;66710;48.868;9.080;2023-04-30T04:48:57;15.07;;;9.07;;
77573;SDS011;66710;48.868;9.080;2023-04-30T04:51:22;16.20;;;8.90;;
77573;SDS011;66710;48.868;9.080;2023-04-30T04:53:48;16.02;;;8.32;;
77573;SDS011;66710;48.868;9.080;2023-04-30T04:56:13;15.13;;;9.00;;
77573;SDS011;66710;48.868;9.080;2023-04-30T04:58:40;14.18;;;8.95;;
77573;SDS011;66710;48.868;9.080;2023-04-30T05:01:05;14.82;;;9.77;;
77573;SDS011;66710;48.868;9.080;2023-04-30T05:03:31;14.65;;;8.90;;
77573;SDS011;66710;48.868;9.080;2023-04-30T05:06:00;13.63;;;8.38;;
77573;SDS011;66710;48.868;9.080;2023-04-30T05:08:26;15.48;;;8.75;;
77573;SDS011;66710;48.868;9.080;2023-04-30T05:10:51;14.50;;;9.23;;
77573;SDS011;66710;48.868;9.080;2023-04-30T05:13:17;15.35;;;8.95;;
77573;SDS011;66710;48.868;9.080;2023-04-30T05:15:42;12.57;;;8.57;;
77573;SDS011;66710;48.868;9.080;2023-04-30T05:18:07;14.75;;;9.43;;
77573;SDS011;66710;48.868;9.080;2023-04-30T05:20:33;13.20;;;8.55;;
77573;SDS011;66710;48.868;9.080;2023-04-30T05:22:58;14.52;;;9.25;;
77573;SDS011;66710;48.868;9.080;2023-04-30T05:25:23;14.02;;;9.30;;
77573;SDS011;66710;48.868;9.080;2023-04-30T05:27:48;13.70;;;8.85;;
77573;SDS011;66710;48.868;9.080;2023-04-30T05:30:14;14.68;;;8.95;;
77573;SDS011;66710;48.868;9.080;2023-04-30T05:32:39;13.40;;;8.65;;
77573;SDS011;66710;48.868;9.080;2023-04-30T05:35:05;15.52;;;9.20;;
77573;SDS011;66710;48.868;9.080;2023-04-30T05:37:31;15.02;;;9.00;;
77573;SDS011;66710;48.868;9.080;2023-04-30T05:39:56;16.33;;;9.70;;
77573;SDS011;66710;48.868;9.080;2023-04-30T05:42:21;13.70;;;9.05;;
77573;SDS011;66710;48.868;9.080;2023-04-30T05:44:47;13.95;;;9.00;;
77573;SDS011;66710;48.868;9.080;2023-04-30T05:47:12;13.90;;;8.95;;
77573;SDS011;66710;48.868;9.080;2023-04-30T05:49:37;13.30;;;8.38;;
77573;SDS011;66710;48.868;9.080;2023-04-30T05:52:03;14.13;;;8.68;;
77573;SDS011;66710;48.868;9.080;2023-04-30T05:54:28;12.18;;;8.00;;
77573;SDS011;66710;48.868;9.080;2023-04-30T05:56:55;12.20;;;8.65;;
77573;SDS011;66710;48.868;9.080;2023-04-30T05:59:20;14.90;;;8.60;;
77573;SDS011;66710;48.868;9.080;2023-04-30T06:01:45;14.57;;;9.25;;
77573;SDS011;66710;48.868;9.080;2023-04-30T06:04:10;13.88;;;8.70;;
77573;SDS011;66710;48.868;9.080;2023-04-30T06:06:36;14.20;;;8.30;;
77573;SDS011;66710;48.868;9.080;2023-04-30T06:09:01;14.20;;;9.50;;
77573;SDS011;66710;48.868;9.080;2023-04-30T06:11:28;14.18;;;9.20;;
77573;SDS011;66710;48.868;9.080;2023-04-30T06:13:54;15.13;;;8.90;;
77573;SDS011;66710;48.868;9.080;2023-04-30T06:16:20;13.00;;;8.60;;
77573;SDS011;66710;48.868;9.080;2023-04-30T06:18:45;13.73;;;8.70;;
77573;SDS011;66710;48.868;9.080;2023-04-30T06:21:10;15.10;;;9.05;;
77573;SDS011;66710;48.868;9.080;2023-04-30T06:23:36;15.23;;;8.32;;
77573;SDS011;66710;48.868;9.080;2023-04-30T06:26:01;13.65;;;8.82;;
77573;SDS011;66710;48.868;9.080;2023-04-30T06:28:27;13.85;;;8.60;;
77573;SDS011;66710;48.868;9.080;2023-04-30T06:30:52;12.75;;;8.60;;
77573;SDS011;66710;48.868;9.080;2023-04-30T06:33:19;12.73;;;8.38;;
77573;SDS011;66710;48.868;9.080;2023-04-30T06:35:44;15.85;;;9.15;;
77573;SDS011;66710;48.868;9.080;2023-04-30T06:38:09;13.75;;;7.68;;
77573;SDS011;66710;48.868;9.080;2023-04-30T06:40:35;12.52;;;8.45;;
77573;SDS011;66710;48.868;9.080;2023-04-30T06:43:00;13.48;;;9.25;;
77573;SDS011;66710;48.868;9.080;2023-04-30T06:45:25;14.10;;;8.43;;
77573;SDS011;66710;48.868;9.080;2023-04-30T06:47:50;14.52;;;8.30;;
77573;SDS011;66710;48.868;9.080;2023-04-30T06:50:17;12.57;;;8.68;;
77573;SDS011;66710;48.868;9.080;2023-04-30T06:52:43;11.75;;;8.38;;
77573;SDS011;66710;48.868;9.080;2023-04-30T06:55:08;12.95;;;8.95;;
77573;SDS011;66710;48.868;9.080;2023-04-30T06:57:33;13.77;;;8.43;;
77573;SDS011;66710;48.868;9.080;2023-04-30T07:00:01;12.73;;;8.90;;
77573;SDS011;66710;48.868;9.080;2023-04-30T07:02:28;13.18;;;8.70;;
77573;SDS011;66710;48.868;9.080;2023-04-30T07:04:53;12.93;;;8.70;;
77573;SDS011;66710;48.868;9.080;2023-04-30T07:07:18;11.93;;;7.63;;
77573;SDS011;66710;48.868;9.080;2023-04-30T07:09:44;12.77;;;8.32;;
77573;SDS011;66710;48.868;9.080;2023-04-30T07:12:09;13.85;;;8.60;;
77573;SDS011;66710;48.868;9.080;2023-04-30T07:14:37;11.23;;;6.97;;
77573;SDS011;66710;48.868;9.080;2023-04-30T07:17:02;12.63;;;7.85;;
77573;SDS011;66710;48.868;9.080;2023-04-30T07:19:28;14.45;;;8.68;;
77573;SDS011;66710;48.868;9.080;2023-04-30T07:21:53;12.43;;;9.02;;
77573;SDS011;66710;48.868;9.080;2023-04-30T07:24:18;12.02;;;8.02;;
77573;SDS011;66710;48.868;9.080;2023-04-30T07:26:44;12.38;;;8.15;;
77573;SDS011;66710;48.868;9.080;2023-04-30T07:29:09;14.20;;;8.45;;
77573;SDS011;66710;48.868;9.080;2023-04-30T07:31:35;11.85;;;8.18;;
77573;SDS011;66710;48.868;9.080;2023-04-30T07:34:00;11.05;;;7.97;;
77573;SDS011;66710;48.868;9.080;2023-04-30T07:36:25;11.48;;;7.72;;
77573;SDS011;66710;48.868;9.080;2023-04-30T07:38:51;12.68;;;8.43;;
77573;SDS011;66710;48.868;9.080;2023-04-30T07:41:17;11.57;;;8.63;;
77573;SDS011;66710;48.868;9.080;2023-04-30T07:43:42;11.65;;;7.53;;
77573;SDS011;66710;48.868;9.080;2023-04-30T07:46:07;10.82;;;7.75;;
77573;SDS011;66710;48.868;9.080;2023-04-30T07:48:33;10.88;;;7.97;;
77573;SDS011;66710;48.868;9.080;2023-04-30T07:50:58;11.27;;;7.75;;
77573;SDS011;66710;48.868;9.080;2023-04-30T07:53:23;11.02;;;7.10;;
77573;SDS011;66710;48.868;9.080;2023-04-30T07:55:49;9.32;;;6.90;;
77573;SDS011;66710;48.868;9.080;2023-04-30T07:58:14;10.65;;;7.28;;
77573;SDS011;66710;48.868;9.080;2023-04-30T08:00:39;9.68;;;6.95;;
77573;SDS011;66710;48.868;9.080;2023-04-30T08:03:05;10.20;;;7.38;;
77573;SDS011;66710;48.868;9.080;2023-04-30T08:05:30;10.10;;;7.03;;
77573;SDS011;66710;48.868;9.080;2023-04-30T08:07:55;9.52;;;6.63;;
77573;SDS011;66710;48.868;9.080;2023-04-30T08:10:21;9.90;;;6.72;;
77573;SDS011;66710;48.868;9.080;2023-04-30T08:12:46;8.73;;;6.70;;
77573;SDS011;66710;48.868;9.080;2023-04-30T08:15:11;9.18;;;6.05;;
77573;SDS011;66710;48.868;9.080;2023-04-30T08:17:37;8.35;;;6.22;;
77573;SDS011;66710;48.868;9.080;2023-04-30T08:20:02;9.23;;;6.55;;
77573;SDS011;66710;48.868;9.080;2023-04-30T08:22:29;10.07;;;6.60;;
77573;SDS011;66710;48.868;9.080;2023-04-30T08:24:54;10.00;;;6.55;;
77573;SDS011;66710;48.868;9.080;2023-04-30T08:27:19;8.05;;;6.22;;
77573;SDS011;66710;48.868;9.080;2023-04-30T08:29:45;8.23;;;5.88;;
77573;SDS011;66710;48.868;9.080;2023-04-30T08:32:11;8.45;;;5.28;;
77573;SDS011;66710;48.868;9.080;2023-04-30T08:34:36;8.15;;;5.70;;
77573;SDS011;66710;48.868;9.080;2023-04-30T08:37:01;8.32;;;5.72;;
77573;SDS011;66710;48.868;9.080;2023-04-30T08:39:27;8.43;;;5.90;;
77573;SDS011;66710;48.868;9.080;2023-04-30T08:41:54;8.63;;;5.32;;
77573;SDS011;66710;48.868;9.080;2023-04-30T08:44:20;7.78;;;5.10;;
77573;SDS011;66710;48.868;9.080;2023-04-30T08:46:48;6.25;;;4.65;;
77573;SDS011;66710;48.868;9.080;2023-04-30T08:49:20;7.43;;;4.45;;
77573;SDS011;66710;48.868;9.080;2023-04-30T08:51:47;6.30;;;4.22;;
77573;SDS011;66710;48.868;9.080;2023-04-30T08:54:12;5.97;;;4.45;;
77573;SDS011;66710;48.868;9.080;2023-04-30T08:56:39;7.10;;;4.55;;
77573;SDS011;66710;48.868;9.080;2023-04-30T08:59:05;6.50;;;4.35;;
77573;SDS011;66710;48.868;9.080;2023-04-30T09:01:30;7.32;;;4.47;;
77573;SDS011;66710;48.868;9.080;2023-04-30T09:03:56;6.10;;;3.83;;
77573;SDS011;66710;48.868;9.080;2023-04-30T09:06:21;5.38;;;3.72;;
77573;SDS011;66710;48.868;9.080;2023-04-30T09:08:47;6.22;;;3.50;;
77573;SDS011;66710;48.868;9.080;2023-04-30T09:11:26;5.72;;;4.00;;
77573;SDS011;66710;48.868;9.080;2023-04-30T09:14:02;5.63;;;3.90;;
77573;SDS011;66710;48.868;9.080;2023-04-30T09:16:28;5.80;;;4.15;;
77573;SDS011;66710;48.868;9.080;2023-04-30T09:19:03;6.43;;;4.15;;
77573;SDS011;66710;48.868;9.080;2023-04-30T09:21:33;5.05;;;3.70;;
77573;SDS011;66710;48.868;9.080;2023-04-30T09:24:00;6.53;;;3.78;;
77573;SDS011;66710;48.868;9.080;2023-04-30T09:26:35;5.38;;;3.42;;
77573;SDS011;66710;48.868;9.080;2023-04-30T09:29:02;5.40;;;3.80;;
77573;SDS011;66710;48.868;9.080;2023-04-30T09:31:32;5.43;;;3.40;;
77573;SDS011;66710;48.868;9.080;2023-04-30T09:34:00;5.53;;;3.35;;
77573;SDS011;66710;48.868;9.080;2023-04-30T09:36:25;5.50;;;3.30;;
77573;SDS011;66710;48.868;9.080;2023-04-30T09:38:51;4.68;;;3.10;;
77573;SDS011;66710;48.868;9.080;2023-04-30T09:41:21;5.03;;;3.22;;
77573;SDS011;66710;48.868;9.080;2023-04-30T09:43:48;5.88;;;3.63;;
77573;SDS011;66710;48.868;9.080;2023-04-30T09:46:14;5.82;;;3.50;;
77573;SDS011;66710;48.868;9.080;2023-04-30T09:48:42;7.07;;;4.13;;
77573;SDS011;66710;48.868;9.080;2023-04-30T09:51:08;5.55;;;3.55;;
77573;SDS011;66710;48.868;9.080;2023-04-30T09:53:36;6.15;;;3.85;;
77573;SDS011;66710;48.868;9.080;2023-04-30T09:56:03;8.48;;;3.75;;
77573;SDS011;66710;48.868;9.080;2023-04-30T09:58:34;5.63;;;3.92;;
77573;SDS011;66710;48.868;9.080;2023-04-30T10:01:02;4.80;;;3.63;;
77573;SDS011;66710;48.868;9.080;2023-04-30T10:03:31;5.45;;;3.50;;
77573;SDS011;66710;48.868;9.080;2023-04-30T10:05:57;4.97;;;3.58;;
77573;SDS011;66710;48.868;9.080;2023-04-30T10:08:25;5.07;;;3.40;;
77573;SDS011;66710;48.868;9.080;2023-04-30T10:10:58;5.90;;;3.60;;
77573;SDS011;66710;48.868;9.080;2023-04-30T10:13:30;4.57;;;3.30;;
77573;SDS011;66710;48.868;9.080;2023-04-30T10:15:58;5.45;;;3.80;;
77573;SDS011;66710;48.868;9.080;2023-04-30T10:18:30;4.88;;;3.28;;
77573;SDS011;66710;48.868;9.080;2023-04-30T10:20:58;5.00;;;3.10;;
77573;SDS011;66710;48.868;9.080;2023-04-30T10:23:35;5.47;;;3.35;;
77573;SDS011;66710;48.868;9.080;2023-04-30T10:26:01;5.28;;;3.05;;
77573;SDS011;66710;48.868;9.080;2023-04-30T10:28:27;5.13;;;3.03;;
77573;SDS011;66710;48.868;9.080;2023-04-30T10:30:54;5.40;;;3.30;;
77573;SDS011;66710;48.868;9.080;2023-04-30T10:36:13;4.60;;;3.30;;
77573;SDS011;66710;48.868;9.080;2023-04-30T10:38:48;5.47;;;3.35;;
77573;SDS011;66710;48.868;9.080;2023-04-30T10:41:14;5.07;;;3.25;;
77573;SDS011;66710;48.868;9.080;2023-04-30T10:43:39;5.03;;;3.38;;
77573;SDS011;66710;48.868;9.080;2023-04-30T10:46:05;4.78;;;2.90;;
77573;SDS011;66710;48.868;9.080;2023-04-30T10:48:32;5.30;;;3.17;;
77573;SDS011;66710;48.868;9.080;2023-04-30T10:50:59;5.57;;;4.00;;
77573;SDS011;66710;48.868;9.080;2023-04-30T10:53:25;6.97;;;4.90;;
77573;SDS011;66710;48.868;9.080;2023-04-30T10:55:56;8.23;;;5.40;;
77573;SDS011;66710;48.868;9.080;2023-04-30T10:58:30;7.13;;;4.30;;
77573;SDS011;66710;48.868;9.080;2023-04-30T11:01:05;10.82;;;8.18;;
77573;SDS011;66710;48.868;9.080;2023-04-30T11:03:35;7.25;;;4.95;;
77573;SDS011;66710;48.868;9.080;2023-04-30T11:06:11;7.13;;;5.03;;
77573;SDS011;66710;48.868;9.080;2023-04-30T11:08:44;6.35;;;3.95;;
77573;SDS011;66710;48.868;9.080;2023-04-30T11:11:10;4.60;;;3.30;;
77573;SDS011;66710;48.868;9.080;2023-04-30T11:13:44;4.90;;;3.42;;
77573;SDS011;66710;48.868;9.080;2023-04-30T11:16:10;5.20;;;3.28;;
77573;SDS011;66710;48.868;9.080;2023-04-30T11:18:45;4.57;;;3.33;;
77573;SDS011;66710;48.868;9.080;2023-04-30T11:21:12;5.78;;;3.40;;
77573;SDS011;66710;48.868;9.080;2023-04-30T11:23:41;5.70;;;3.55;;
77573;SDS011;66710;48.868;9.080;2023-04-30T11:26:07;5.88;;;3.80;;
77573;SDS011;66710;48.868;9.080;2023-04-30T11:28:33;5.75;;;3.67;;
77573;SDS011;66710;48.868;9.080;2023-04-30T11:31:02;6.45;;;4.18;;
77573;SDS011;66710;48.868;9.080;2023-04-30T11:33:31;6.15;;;3.88;;
77573;SDS011;66710;48.868;9.080;2023-04-30T11:35:58;6.03;;;3.58;;
77573;SDS011;66710;48.868;9.080;2023-04-30T11:38:25;6.03;;;4.00;;
77573;SDS011;66710;48.868;9.080;2023-04-30T11:40:52;5.28;;;3.90;;
77573;SDS011;66710;48.868;9.080;2023-04-30T11:48:36;5.82;;;3.78;;
77573;SDS011;66710;48.868;9.080;2023-04-30T11:51:03;8.10;;;4.00;;
77573;SDS011;66710;48.868;9.080;2023-04-30T11:53:44;5.00;;;3.53;;
77573;SDS011;66710;48.868;9.080;2023-04-30T11:56:10;6.45;;;3.45;;
77573;SDS011;66710;48.868;9.080;2023-04-30T11:58:36;5.22;;;3.80;;
77573;SDS011;66710;48.868;9.080;2023-04-30T12:01:03;5.50;;;3.60;;
77573;SDS011;66710;48.868;9.080;2023-04-30T12:03:30;5.75;;;3.80;;
77573;SDS011;66710;48.868;9.080;2023-04-30T12:05:56;5.88;;;3.80;;
77573;SDS011;66710;48.868;9.080;2023-04-30T12:08:21;6.10;;;4.20;;
77573;SDS011;66710;48.868;9.080;2023-04-30T12:10:47;5.70;;;4.03;;
77573;SDS011;66710;48.868;9.080;2023-04-30T12:13:13;8.05;;;3.90;;
77573;SDS011;66710;48.868;9.080;2023-04-30T12:15:38;6.53;;;4.13;;
77573;SDS011;66710;48.868;9.080;2023-04-30T12:18:11;5.10;;;3.50;;
77573;SDS011;66710;48.868;9.080;2023-04-30T12:20:37;5.68;;;3.92;;
77573;SDS011;66710;48.868;9.080;2023-04-30T12:23:04;5.75;;;3.90;;
77573;SDS011;66710;48.868;9.080;2023-04-30T12:25:31;7.15;;;4.90;;
77573;SDS011;66710;48.868;9.080;2023-04-30T12:28:04;8.35;;;5.70;;
77573;SDS011;66710;48.868;9.080;2023-04-30T12:30:30;6.00;;;4.10;;
77573;SDS011;66710;48.868;9.080;2023-04-30T12:32:56;6.43;;;4.00;;
77573;SDS011;66710;48.868;9.080;2023-04-30T12:35:22;6.07;;;3.97;;
77573;SDS011;66710;48.868;9.080;2023-04-30T12:37:49;5.45;;;3.40;;
77573;SDS011;66710;48.868;9.080;2023-04-30T12:40:19;5.05;;;3.22;;
77573;SDS011;66710;48.868;9.080;2023-04-30T12:42:46;7.00;;;4.97;;
77573;SDS011;66710;48.868;9.080;2023-04-30T12:45:12;6.22;;;3.90;;
77573;SDS011;66710;48.868;9.080;2023-04-30T12:47:57;8.15;;;5.45;;
77573;SDS011;66710;48.868;9.080;2023-04-30T12:50:23;8.07;;;5.05;;
77573;SDS011;66710;48.868;9.080;2023-04-30T12:52:48;6.32;;;3.70;;
77573;SDS011;66710;48.868;9.080;2023-04-30T12:55:14;4.75;;;3.30;;
77573;SDS011;66710;48.868;9.080;2023-04-30T12:57:41;4.85;;;3.72;;
77573;SDS011;66710;48.868;9.080;2023-04-30T13:00:06;5.40;;;3.35;;
77573;SDS011;66710;48.868;9.080;2023-04-30T13:02:32;5.75;;;3.60;;
77573;SDS011;66710;48.868;9.080;2023-04-30T13:04:57;6.35;;;3.67;;
77573;SDS011;66710;48.868;9.080;2023-04-30T13:07:22;6.18;;;3.33;;
77573;SDS011;66710;48.868;9.080;2023-04-30T13:09:48;4.60;;;3.20;;
77573;SDS011;66710;48.868;9.080;2023-04-30T13:12:13;6.45;;;5.47;;
77573;SDS011;66710;48.868;9.080;2023-04-30T13:14:39;7.68;;;6.57;;
77573;SDS011;66710;48.868;9.080;2023-04-30T13:17:04;10.50;;;7.68;;
77573;SDS011;66710;48.868;9.080;2023-04-30T13:19:31;8.15;;;6.30;;
77573;SDS011;66710;48.868;9.080;2023-04-30T13:21:56;7.75;;;4.80;;
77573;SDS011;66710;48.868;9.080;2023-04-30T13:24:22;5.25;;;3.35;;
77573;SDS011;66710;48.868;9.080;2023-04-30T13:26:48;5.43;;;3.60;;
77573;SDS011;66710;48.868;9.080;2023-04-30T13:29:13;6.10;;;3.70;;
77573;SDS011;66710;48.868;9.080;2023-04-30T13:31:39;6.55;;;3.70;;
77573;SDS011;66710;48.868;9.080;2023-04-30T13:34:06;5.72;;;3.70;;
77573;SDS011;66710;48.868;9.080;2023-04-30T13:36:31;5.10;;;3.53;;
77573;SDS011;66710;48.868;9.080;2023-04-30T13:38:56;5.60;;;3.50;;
77573;SDS011;66710;48.868;9.080;2023-04-30T13:41:22;4.85;;;3.45;;
77573;SDS011;66710;48.868;9.080;2023-04-30T13:43:47;5.88;;;3.80;;
77573;SDS011;66710;48.868;9.080;2023-04-30T13:46:13;7.10;;;4.18;;
77573;SDS011;66710;48.868;9.080;2023-04-30T13:48:39;7.75;;;5.05;;
77573;SDS011;66710;48.868;9.080;2023-04-30T13:51:04;5.97;;;3.30;;
77573;SDS011;66710;48.868;9.080;2023-04-30T13:53:29;5.05;;;3.50;;
77573;SDS011;66710;48.868;9.080;2023-04-30T13:55:55;5.32;;;3.45;;
77573;SDS011;66710;48.868;9.080;2023-04-30T13:58:23;4.93;;;3.38;;
77573;SDS011;66710;48.868;9.080;2023-04-30T14:00:48;4.55;;;3.22;;
77573;SDS011;66710;48.868;9.080;2023-04-30T14:03:14;4.95;;;3.25;;
77573;SDS011;66710;48.868;9.080;2023-04-30T14:05:39;4.72;;;3.10;;
77573;SDS011;66710;48.868;9.080;2023-04-30T14:08:05;5.18;;;3.45;;
77573;SDS011;66710;48.868;9.080;2023-04-30T14:10:31;5.47;;;3.47;;
77573;SDS011;66710;48.868;9.080;2023-04-30T14:12:57;5.20;;;3.50;;
77573;SDS011;66710;48.868;9.080;2023-04-30T14:15:22;4.40;;;2.95;;
77573;SDS011;66710;48.868;9.080;2023-04-30T14:17:48;4.80;;;3.50;;
77573;SDS011;66710;48.868;9.080;2023-04-30T14:20:13;5.35;;;3.45;;
77573;SDS011;66710;48.868;9.080;2023-04-30T14:22:39;4.40;;;3.00;;
77573;SDS011;66710;48.868;9.080;2023-04-30T14:25:05;6.45;;;3.60;;
77573;SDS011;66710;48.868;9.080;2023-04-30T14:27:31;5.90;;;3.80;;
77573;SDS011;66710;48.868;9.080;2023-04-30T14:29:56;5.60;;;3.60;;
77573;SDS011;66710;48.868;9.080;2023-04-30T14:32:24;5.55;;;3.60;;
77573;SDS011;66710;48.868;9.080;2023-04-30T14:34:49;5.97;;;3.47;;
77573;SDS011;66710;48.868;9.080;2023-04-30T14:37:15;5.32;;;3.05;;
77573;SDS011;66710;48.868;9.080;2023-04-30T14:39:40;5.65;;;3.70;;
77573;SDS011;66710;48.868;9.080;2023-04-30T14:42:06;6.53;;;4.10;;
77573;SDS011;66710;48.868;9.080;2023-04-30T14:44:32;6.15;;;4.40;;
77573;SDS011;66710;48.868;9.080;2023-04-30T14:46:58;5.40;;;3.50;;
77573;SDS011;66710;48.868;9.080;2023-04-30T14:49:23;4.82;;;3.40;;
77573;SDS011;66710;48.868;9.080;2023-04-30T14:51:49;5.43;;;3.47;;
77573;SDS011;66710;48.868;9.080;2023-04-30T14:54:14;5.10;;;3.35;;
77573;SDS011;66710;48.868;9.080;2023-04-30T14:56:40;6.47;;;4.47;;
77573;SDS011;66710;48.868;9.080;2023-04-30T14:59:05;5.32;;;4.32;;